createdAt,value
2023-05-13T00:01:41.010Z,9.65
2023-05-13T00:04:08.248Z,9.65
2023-05-13T00:06:35.731Z,9.57
2023-05-13T00:09:02.791Z,9.48
2023-05-13T00:11:29.182Z,9.45
2023-05-13T00:13:56.681Z,9.42
2023-05-13T00:16:24.683Z,9.45
2023-05-13T00:18:51.216Z,9.42
2023-05-13T00:21:17.604Z,9.38
2023-05-13T00:23:44.598Z,9.45
2023-05-13T00:26:11.345Z,9.45
2023-05-13T00:28:37.710Z,9.50
2023-05-13T00:31:04.120Z,9.52
2023-05-13T00:33:30.519Z,9.53
2023-05-13T00:35:57.188Z,9.50
2023-05-13T00:38:23.589Z,9.43
2023-05-13T00:40:50.763Z,9.46
2023-05-13T00:43:17.189Z,9.44
2023-05-13T00:45:43.601Z,9.52
2023-05-13T00:48:10.348Z,9.43
2023-05-13T00:50:36.761Z,9.47
2023-05-13T00:53:06.652Z,9.51
2023-05-13T00:55:33.071Z,9.45
2023-05-13T00:58:00.259Z,9.48
2023-05-13T01:00:28.375Z,9.53
2023-05-13T01:03:02.681Z,9.53
2023-05-13T01:05:38.129Z,9.49
2023-05-13T01:08:16.729Z,9.47
2023-05-13T01:10:48.922Z,9.43
2023-05-13T01:13:20.560Z,9.50
2023-05-13T01:15:51.984Z,9.41
2023-05-13T01:18:22.669Z,9.38
2023-05-13T01:20:49.418Z,9.34
2023-05-13T01:23:16.386Z,9.28
2023-05-13T01:25:42.664Z,9.21
2023-05-13T01:28:09.424Z,9.23
2023-05-13T01:30:36.290Z,9.29
2023-05-13T01:33:03.073Z,9.32
2023-05-13T01:35:30.946Z,9.29
2023-05-13T01:37:57.633Z,9.26
2023-05-13T01:42:57.193Z,9.19
2023-05-13T01:45:23.511Z,9.19
2023-05-13T01:47:49.867Z,9.26
2023-05-13T01:50:16.185Z,9.25
2023-05-13T01:52:42.470Z,9.28
2023-05-13T01:55:09.165Z,9.31
2023-05-13T01:57:36.140Z,9.30
2023-05-13T02:00:03.454Z,9.29
2023-05-13T02:02:29.768Z,9.31
2023-05-13T02:04:56.122Z,9.34
2023-05-13T02:07:22.411Z,9.33
2023-05-13T02:09:48.684Z,9.30
2023-05-13T02:12:17.753Z,9.36
2023-05-13T02:14:44.681Z,9.31
2023-05-13T02:17:11.017Z,9.28
2023-05-13T02:19:37.310Z,9.27
2023-05-13T02:22:03.998Z,9.22
2023-05-13T02:24:30.648Z,9.18
2023-05-13T02:26:56.957Z,9.16
2023-05-13T02:29:23.256Z,9.16
2023-05-13T02:31:50.259Z,9.20
2023-05-13T02:34:16.544Z,9.24
2023-05-13T02:36:42.867Z,9.21
2023-05-13T02:39:09.128Z,9.20
2023-05-13T02:41:35.425Z,9.24
2023-05-13T02:44:01.720Z,9.20
2023-05-13T02:46:28.072Z,9.20
2023-05-13T02:48:55.050Z,9.27
2023-05-13T02:51:21.395Z,9.28
2023-05-13T02:53:47.908Z,9.33
2023-05-13T02:56:15.562Z,9.31
2023-05-13T02:58:41.868Z,9.30
2023-05-13T03:01:08.217Z,9.25
2023-05-13T03:03:34.736Z,9.32
2023-05-13T03:06:01.760Z,9.29
2023-05-13T03:08:28.058Z,9.27
2023-05-13T03:10:54.772Z,9.26
2023-05-13T03:13:21.166Z,9.30
2023-05-13T03:15:47.479Z,9.24
2023-05-13T03:18:13.760Z,9.29
2023-05-13T03:20:40.081Z,9.28
2023-05-13T03:23:07.040Z,9.29
2023-05-13T03:25:33.412Z,9.21
2023-05-13T03:27:59.917Z,9.21
2023-05-13T03:30:26.334Z,9.13
2023-05-13T03:32:52.791Z,9.15
2023-05-13T03:35:23.490Z,9.15
2023-05-13T03:37:49.765Z,9.18
2023-05-13T03:40:16.946Z,9.16
2023-05-13T03:42:43.318Z,9.28
2023-05-13T03:45:10.764Z,9.18
2023-05-13T03:47:38.400Z,9.15
2023-05-13T03:50:05.502Z,9.15
2023-05-13T03:52:31.788Z,9.13
2023-05-13T03:55:00.230Z,9.19
2023-05-13T03:57:27.139Z,9.22
2023-05-13T03:59:53.453Z,9.19
2023-05-13T04:02:21.005Z,9.16
2023-05-13T04:04:47.353Z,9.11
2023-05-13T04:07:13.682Z,9.12
2023-05-13T04:09:39.997Z,9.07
2023-05-13T04:12:06.702Z,9.07
2023-05-13T04:14:34.317Z,9.05
2023-05-13T04:17:00.712Z,9.15
2023-05-13T04:19:27.157Z,9.14
2023-05-13T04:21:53.403Z,9.12
2023-05-13T04:24:21.419Z,9.13
2023-05-13T04:26:47.749Z,9.18
2023-05-13T04:29:17.308Z,9.18
2023-05-13T04:31:44.400Z,9.21
2023-05-13T04:34:10.668Z,9.20
2023-05-13T04:36:36.974Z,9.17
2023-05-13T04:39:03.396Z,9.23
2023-05-13T04:41:29.719Z,9.28
2023-05-13T04:43:56.028Z,9.32
2023-05-13T04:46:22.450Z,9.20
2023-05-13T04:48:49.484Z,9.15
2023-05-13T04:51:16.381Z,9.22
2023-05-13T04:53:43.033Z,9.22
2023-05-13T04:56:09.276Z,9.19
2023-05-13T04:58:35.536Z,9.15
2023-05-13T05:01:01.784Z,9.19
2023-05-13T05:03:28.151Z,9.15
2023-05-13T05:05:55.080Z,9.19
2023-05-13T05:08:21.396Z,9.24
2023-05-13T05:10:47.677Z,9.27
2023-05-13T05:13:14.177Z,9.29
2023-05-13T05:15:40.932Z,9.27
2023-05-13T05:18:07.339Z,9.33
2023-05-13T05:20:33.691Z,9.41
2023-05-13T05:23:00.759Z,9.35
2023-05-13T05:25:27.106Z,9.37
2023-05-13T05:27:53.597Z,9.38
2023-05-13T05:30:20.326Z,9.34
2023-05-13T05:32:46.880Z,9.36
2023-05-13T05:35:15.074Z,9.34
2023-05-13T05:37:41.365Z,9.32
2023-05-13T05:40:09.668Z,9.33
2023-05-13T05:42:35.991Z,9.39
2023-05-13T05:45:02.312Z,9.33
2023-05-13T05:47:28.638Z,9.38
2023-05-13T05:49:57.827Z,9.37
2023-05-13T05:52:24.121Z,9.38
2023-05-13T05:54:50.403Z,9.39
2023-05-13T05:57:17.384Z,9.43
2023-05-13T05:59:43.700Z,9.52
2023-05-13T06:02:10.093Z,9.47
2023-05-13T06:04:36.422Z,9.58
2023-05-13T06:07:05.299Z,9.62
2023-05-13T06:09:31.666Z,9.53
2023-05-13T06:11:57.957Z,9.66
2023-05-13T06:14:24.904Z,9.52
2023-05-13T06:16:52.479Z,9.59
2023-05-13T06:19:19.867Z,9.62
2023-05-13T06:21:46.183Z,9.60
2023-05-13T06:24:12.488Z,9.64
2023-05-13T06:26:38.799Z,9.63
2023-05-13T06:29:05.142Z,9.68
2023-05-13T06:31:32.165Z,9.78
2023-05-13T06:33:58.486Z,9.78
2023-05-13T06:36:25.364Z,9.88
2023-05-13T06:38:53.296Z,9.93
2023-05-13T06:41:19.956Z,9.96
2023-05-13T06:43:48.053Z,10.13
2023-05-13T06:46:14.418Z,10.08
2023-05-13T06:48:44.311Z,9.95
2023-05-13T06:51:10.582Z,9.84
2023-05-13T06:53:36.871Z,9.96
2023-05-13T06:56:03.326Z,10.10
2023-05-13T06:58:29.615Z,10.11
2023-05-13T07:00:55.933Z,10.22
2023-05-13T07:03:22.755Z,10.31
2023-05-13T07:05:49.727Z,10.33
2023-05-13T07:08:17.225Z,10.26
2023-05-13T07:10:43.637Z,10.05
2023-05-13T07:13:10.906Z,10.16
2023-05-13T07:15:40.226Z,10.24
2023-05-13T07:18:06.867Z,10.22
2023-05-13T07:20:33.252Z,10.24
2023-05-13T07:23:00.247Z,10.32
2023-05-13T07:25:26.693Z,10.29
2023-05-13T07:27:52.989Z,10.33
2023-05-13T07:30:19.470Z,10.32
2023-05-13T07:32:45.803Z,10.32
2023-05-13T07:35:12.316Z,10.35
2023-05-13T07:37:38.653Z,10.24
2023-05-13T07:40:08.458Z,10.23
2023-05-13T07:42:34.987Z,10.29
2023-05-13T07:45:01.379Z,10.40
2023-05-13T07:47:28.321Z,10.37
2023-05-13T07:49:54.634Z,10.44
2023-05-13T07:52:20.989Z,10.48
2023-05-13T07:54:47.645Z,10.59
2023-05-13T07:57:14.643Z,10.53
2023-05-13T07:59:42.757Z,10.57
2023-05-13T08:02:10.910Z,10.56
2023-05-13T08:04:37.272Z,10.54
2023-05-13T08:07:04.239Z,10.64
2023-05-13T08:09:30.623Z,10.52
2023-05-13T08:11:57.224Z,10.69
2023-05-13T08:14:24.186Z,10.51
2023-05-13T08:16:50.559Z,10.43
2023-05-13T08:19:17.130Z,10.20
2023-05-13T08:21:43.760Z,10.27
2023-05-13T08:24:10.096Z,10.37
2023-05-13T08:26:37.367Z,10.48
2023-05-13T08:29:03.681Z,10.24
2023-05-13T08:31:31.495Z,10.26
2023-05-13T08:33:57.814Z,10.32
2023-05-13T08:36:25.265Z,10.38
2023-05-13T08:38:51.614Z,10.39
2023-05-13T08:41:19.350Z,10.50
2023-05-13T08:43:49.345Z,10.59
2023-05-13T08:46:18.093Z,10.54
2023-05-13T08:48:45.699Z,10.56
2023-05-13T08:51:12.419Z,10.54
2023-05-13T08:53:39.288Z,10.68
2023-05-13T08:56:12.419Z,10.82
2023-05-13T08:58:38.747Z,10.79
2023-05-13T09:01:06.515Z,10.82
2023-05-13T09:03:34.504Z,10.81
2023-05-13T09:06:02.217Z,10.89
2023-05-13T09:08:28.657Z,11.06
2023-05-13T09:10:55.277Z,11.15
2023-05-13T09:13:24.294Z,11.52
2023-05-13T09:15:50.860Z,11.48
2023-05-13T09:18:19.122Z,11.62
2023-05-13T09:20:46.128Z,11.55
2023-05-13T09:23:15.141Z,11.61
2023-05-13T09:25:41.460Z,11.43
2023-05-13T09:28:08.365Z,11.45
2023-05-13T09:30:37.762Z,11.23
2023-05-13T09:33:07.119Z,11.21
2023-05-13T09:35:34.196Z,11.44
2023-05-13T09:38:00.519Z,11.40
2023-05-13T09:40:27.725Z,11.40
2023-05-13T09:42:57.949Z,11.21
2023-05-13T09:45:25.778Z,11.39
2023-05-13T09:47:54.390Z,11.41
2023-05-13T09:50:21.842Z,11.39
2023-05-13T09:52:49.137Z,11.46
2023-05-13T09:55:15.729Z,11.68
2023-05-13T09:57:42.749Z,11.96
2023-05-13T10:00:15.004Z,12.23
2023-05-13T10:02:48.321Z,12.31
2023-05-13T10:05:17.550Z,12.57
2023-05-13T10:07:44.082Z,12.73
2023-05-13T10:10:11.020Z,13.02
2023-05-13T10:12:40.539Z,13.18
2023-05-13T10:15:09.491Z,13.08
2023-05-13T10:17:37.961Z,13.12
2023-05-13T10:20:05.843Z,12.84
2023-05-13T10:22:33.944Z,13.02
2023-05-13T10:25:02.670Z,13.37
2023-05-13T10:27:30.608Z,13.37
2023-05-13T10:29:58.019Z,13.52
2023-05-13T10:32:26.223Z,13.43
2023-05-13T10:34:57.354Z,13.00
2023-05-13T10:38:05.181Z,12.64
2023-05-13T10:40:52.670Z,12.58
2023-05-13T10:43:20.958Z,12.37
2023-05-13T10:45:49.254Z,12.16
2023-05-13T10:48:17.405Z,12.04
2023-05-13T10:50:55.354Z,12.18
2023-05-13T10:53:24.199Z,12.01
2023-05-13T10:55:55.771Z,12.18
2023-05-13T10:58:28.351Z,12.32
2023-05-13T11:01:12.863Z,12.56
2023-05-13T11:03:40.734Z,12.81
2023-05-13T11:06:18.678Z,12.73
2023-05-13T11:08:46.474Z,12.85
2023-05-13T11:11:34.435Z,12.89
2023-05-13T11:14:10.058Z,12.89
2023-05-13T11:16:37.039Z,12.98
2023-05-13T11:19:08.523Z,13.11
2023-05-13T11:21:38.821Z,13.08
2023-05-13T11:24:07.302Z,13.19
2023-05-13T11:26:44.640Z,13.22
2023-05-13T11:29:10.957Z,13.26
2023-05-13T11:31:46.054Z,13.19
2023-05-13T11:34:15.306Z,13.23
2023-05-13T11:36:45.276Z,13.25
2023-05-13T11:39:14.008Z,13.01
2023-05-13T11:41:42.732Z,12.58
2023-05-13T11:44:11.017Z,12.45
2023-05-13T11:46:37.382Z,12.19
2023-05-13T11:49:05.845Z,12.36
2023-05-13T11:51:34.406Z,12.45
2023-05-13T11:54:02.222Z,12.70
2023-05-13T11:56:29.373Z,12.71
2023-05-13T11:58:56.130Z,13.03
2023-05-13T12:01:22.591Z,13.13
2023-05-13T12:03:48.960Z,13.09
2023-05-13T12:06:18.125Z,12.99
2023-05-13T12:08:45.622Z,12.71
2023-05-13T12:11:12.619Z,12.69
2023-05-13T12:13:40.575Z,13.16
2023-05-13T12:16:07.262Z,13.61
2023-05-13T12:18:33.906Z,13.96
2023-05-13T12:21:00.244Z,13.94
2023-05-13T12:23:36.868Z,14.05
2023-05-13T12:26:07.379Z,13.83
2023-05-13T12:28:33.755Z,13.77
2023-05-13T12:31:04.850Z,13.78
2023-05-13T12:33:40.530Z,13.81
2023-05-13T12:36:19.211Z,13.62
2023-05-13T12:38:54.359Z,13.59
2023-05-13T12:41:22.272Z,13.30
2023-05-13T12:43:48.660Z,13.20
2023-05-13T12:46:15.052Z,13.09
2023-05-13T12:48:43.243Z,12.85
2023-05-13T12:51:09.569Z,12.92
2023-05-13T12:53:35.864Z,12.92
2023-05-13T12:56:02.241Z,12.73
2023-05-13T12:58:29.275Z,12.73
2023-05-13T13:00:55.593Z,12.65
2023-05-13T13:03:24.292Z,12.51
2023-05-13T13:05:51.374Z,12.43
2023-05-13T13:08:17.877Z,12.37
2023-05-13T13:10:44.168Z,12.30
2023-05-13T13:13:10.454Z,12.28
2023-05-13T13:15:37.813Z,12.18
2023-05-13T13:18:04.583Z,12.16
2023-05-13T13:20:30.952Z,12.19
2023-05-13T13:22:59.043Z,12.38
2023-05-13T13:25:26.083Z,12.40
2023-05-13T13:27:52.400Z,12.51
2023-05-13T13:30:21.347Z,12.58
2023-05-13T13:32:48.266Z,12.60
2023-05-13T13:35:14.784Z,12.76
2023-05-13T13:37:41.043Z,12.99
2023-05-13T13:40:08.488Z,13.03
2023-05-13T13:42:43.980Z,13.05
2023-05-13T13:45:12.068Z,13.12
2023-05-13T13:47:38.555Z,13.03
2023-05-13T13:50:06.541Z,13.02
2023-05-13T13:52:32.861Z,12.90
2023-05-13T13:54:59.703Z,12.85
2023-05-13T13:57:25.973Z,12.84
2023-05-13T13:59:57.666Z,13.08
2023-05-13T14:02:23.983Z,13.26
2023-05-13T14:04:50.376Z,13.57
2023-05-13T14:07:17.581Z,13.85
2023-05-13T14:09:43.967Z,14.04
2023-05-13T14:12:10.275Z,14.17
2023-05-13T14:14:36.549Z,14.62
2023-05-13T14:17:03.104Z,15.00
2023-05-13T14:19:29.455Z,15.10
2023-05-13T14:21:55.775Z,15.45
2023-05-13T14:24:22.988Z,15.61
2023-05-13T14:26:49.302Z,15.91
2023-05-13T14:29:15.674Z,16.24
2023-05-13T14:31:42.018Z,16.42
2023-05-13T14:34:08.328Z,16.27
2023-05-13T14:36:35.292Z,16.50
2023-05-13T14:39:01.654Z,16.50
2023-05-13T14:41:29.129Z,16.41
2023-05-13T14:43:55.413Z,16.50
2023-05-13T14:46:21.817Z,16.47
2023-05-13T14:48:48.074Z,16.45
2023-05-13T14:51:14.354Z,16.65
2023-05-13T14:53:41.852Z,17.01
2023-05-13T14:56:08.214Z,17.13
2023-05-13T14:58:35.424Z,17.08
2023-05-13T15:01:01.923Z,17.10
2023-05-13T15:03:28.334Z,17.16
2023-05-13T15:05:55.347Z,17.23
2023-05-13T15:08:21.871Z,17.34
2023-05-13T15:10:48.148Z,16.57
2023-05-13T15:13:14.434Z,16.54
2023-05-13T15:15:41.427Z,16.49
2023-05-13T15:18:07.731Z,16.54
2023-05-13T15:20:34.119Z,16.74
2023-05-13T15:23:00.425Z,16.76
2023-05-13T15:25:26.714Z,16.91
2023-05-13T15:27:53.445Z,17.01
2023-05-13T15:30:20.373Z,17.05
2023-05-13T15:32:47.581Z,17.06
2023-05-13T15:35:15.403Z,17.46
2023-05-13T15:37:42.173Z,17.74
2023-05-13T15:40:09.122Z,17.32
2023-05-13T15:42:36.007Z,16.70
2023-05-13T15:45:02.281Z,16.55
2023-05-13T15:47:28.741Z,16.30
2023-05-13T15:49:55.825Z,16.41
2023-05-13T15:52:22.099Z,16.38
2023-05-13T15:54:48.403Z,16.17
2023-05-13T15:57:14.790Z,16.19
2023-05-13T15:59:41.101Z,16.60
2023-05-13T16:02:07.464Z,16.80
2023-05-13T16:04:33.861Z,16.74
2023-05-13T16:07:00.868Z,16.55
2023-05-13T16:09:27.135Z,16.64
2023-05-13T16:11:54.821Z,16.93
2023-05-13T16:14:21.105Z,17.06
2023-05-13T16:16:47.504Z,17.17
2023-05-13T16:19:13.900Z,17.25
2023-05-13T16:21:40.923Z,16.96
2023-05-13T16:24:07.940Z,16.64
2023-05-13T16:26:34.312Z,16.41
2023-05-13T16:29:00.724Z,16.30
2023-05-13T16:31:27.045Z,15.96
2023-05-13T16:33:53.366Z,15.61
2023-05-13T16:36:19.673Z,15.33
2023-05-13T16:38:46.094Z,15.04
2023-05-13T16:41:13.046Z,14.95
2023-05-13T16:43:39.328Z,14.56
2023-05-13T16:46:05.700Z,14.47
2023-05-13T16:48:32.094Z,14.43
2023-05-13T16:50:58.402Z,14.31
2023-05-13T16:53:25.455Z,14.41
2023-05-13T16:55:51.807Z,14.31
2023-05-13T16:58:18.794Z,14.27
2023-05-13T17:00:45.406Z,14.33
2023-05-13T17:03:12.463Z,14.40
2023-05-13T17:05:38.950Z,14.43
2023-05-13T17:08:05.553Z,14.29
2023-05-13T17:10:31.898Z,14.34
2023-05-13T17:12:58.536Z,14.28
2023-05-13T17:15:25.650Z,14.25
2023-05-13T17:17:51.986Z,14.33
2023-05-13T17:20:18.831Z,14.34
2023-05-13T17:22:46.452Z,14.36
2023-05-13T17:25:12.981Z,14.42
2023-05-13T17:27:39.288Z,14.35
2023-05-13T17:30:06.898Z,14.39
2023-05-13T17:32:34.154Z,14.17
2023-05-13T17:35:00.501Z,14.08
2023-05-13T17:37:26.781Z,13.94
2023-05-13T17:39:54.028Z,13.89
2023-05-13T17:42:21.014Z,13.79
2023-05-13T17:44:47.372Z,13.66
2023-05-13T17:47:13.918Z,13.63
2023-05-13T17:49:40.865Z,13.56
2023-05-13T17:52:07.187Z,13.51
2023-05-13T17:54:33.508Z,13.39
2023-05-13T17:56:59.819Z,13.36
2023-05-13T17:59:26.176Z,13.22
2023-05-13T18:01:52.581Z,13.14
2023-05-13T18:04:18.896Z,13.10
2023-05-13T18:06:45.869Z,12.99
2023-05-13T18:09:12.171Z,12.96
2023-05-13T18:11:38.513Z,12.92
2023-05-13T18:14:06.009Z,12.87
2023-05-13T18:16:32.398Z,12.85
2023-05-13T18:18:58.743Z,12.80
2023-05-13T18:21:26.616Z,12.79
2023-05-13T18:23:53.563Z,12.74
2023-05-13T18:26:20.202Z,12.70
2023-05-13T18:28:46.538Z,12.65
2023-05-13T18:31:12.930Z,12.69
2023-05-13T18:33:39.301Z,12.65
2023-05-13T18:36:06.789Z,12.61
2023-05-13T18:38:33.150Z,12.58
2023-05-13T18:41:02.511Z,12.55
2023-05-13T18:43:29.019Z,12.54
2023-05-13T18:45:57.458Z,12.56
2023-05-13T18:48:24.438Z,12.55
2023-05-13T18:50:52.280Z,12.61
2023-05-13T18:53:18.794Z,12.57
2023-05-13T18:55:45.413Z,12.58
2023-05-13T18:58:12.779Z,12.64
2023-05-13T19:00:39.077Z,12.59
2023-05-13T19:03:05.540Z,12.60
2023-05-13T19:05:32.365Z,12.55
2023-05-13T19:07:59.754Z,12.51
2023-05-13T19:10:26.215Z,12.58
2023-05-13T19:12:52.547Z,12.52
2023-05-13T19:15:20.528Z,12.49
2023-05-13T19:17:46.879Z,12.44
2023-05-13T19:20:13.213Z,12.53
2023-05-13T19:22:39.486Z,12.44
2023-05-13T19:25:06.281Z,12.41
2023-05-13T19:27:32.709Z,12.44
2023-05-13T19:30:00.550Z,12.47
2023-05-13T19:32:27.641Z,12.41
2023-05-13T19:34:54.002Z,12.38
2023-05-13T19:37:20.291Z,12.28
2023-05-13T19:39:46.581Z,12.21
2023-05-13T19:42:14.689Z,12.06
2023-05-13T19:44:41.466Z,12.02
2023-05-13T19:47:08.421Z,11.90
2023-05-13T19:49:35.362Z,11.71
2023-05-13T19:52:01.834Z,11.41
2023-05-13T19:54:28.166Z,11.22
2023-05-13T19:56:54.498Z,11.00
2023-05-13T19:59:20.921Z,10.76
2023-05-13T20:01:47.254Z,10.59
2023-05-13T20:04:13.594Z,10.43
2023-05-13T20:06:40.586Z,10.32
2023-05-13T20:09:07.739Z,10.26
2023-05-13T20:11:34.053Z,10.26
2023-05-13T20:14:00.817Z,10.15
2023-05-13T20:16:28.074Z,10.05
2023-05-13T20:18:54.440Z,10.03
2023-05-13T20:21:20.854Z,9.97
2023-05-13T20:23:47.790Z,9.88
2023-05-13T20:26:14.205Z,9.82
2023-05-13T20:28:40.466Z,9.81
2023-05-13T20:31:06.773Z,9.78
2023-05-13T20:33:33.126Z,9.75
2023-05-13T20:35:59.450Z,9.75
2023-05-13T20:38:25.812Z,9.63
2023-05-13T20:40:52.815Z,9.58
2023-05-13T20:43:19.249Z,9.57
2023-05-13T20:45:45.603Z,9.52
2023-05-13T20:48:12.848Z,9.58
2023-05-13T20:50:39.287Z,9.53
2023-05-13T20:53:05.604Z,9.49
2023-05-13T20:55:32.067Z,9.46
2023-05-13T20:57:59.096Z,9.48
2023-05-13T21:00:25.726Z,9.38
2023-05-13T21:02:53.124Z,9.37
2023-05-13T21:05:19.919Z,9.41
2023-05-13T21:07:46.389Z,9.35
2023-05-13T21:10:12.799Z,9.40
2023-05-13T21:12:39.208Z,9.46
2023-05-13T21:15:07.887Z,9.46
2023-05-13T21:17:34.209Z,9.46
2023-05-13T21:20:00.648Z,9.56
2023-05-13T21:22:26.981Z,9.56
2023-05-13T21:24:53.428Z,9.56
2023-05-13T21:27:20.634Z,9.63
2023-05-13T21:29:47.040Z,9.64
2023-05-13T21:32:14.376Z,9.65
2023-05-13T21:34:40.694Z,9.66
2023-05-13T21:37:06.990Z,9.64
2023-05-13T21:39:33.318Z,9.67
2023-05-13T21:41:59.997Z,9.67
2023-05-13T21:44:26.889Z,9.71
2023-05-13T21:46:53.185Z,9.77
2023-05-13T21:49:20.170Z,9.80
2023-05-13T21:51:46.476Z,9.81
2023-05-13T21:54:12.734Z,9.87
2023-05-13T21:56:39.065Z,9.89
2023-05-13T21:59:05.363Z,9.94
2023-05-13T22:01:31.727Z,9.94
2023-05-13T22:03:58.053Z,9.95
2023-05-13T22:06:25.067Z,10.00
2023-05-13T22:08:51.384Z,9.94
2023-05-13T22:11:17.716Z,9.93
2023-05-13T22:13:43.992Z,9.92
2023-05-13T22:16:11.167Z,9.91
2023-05-13T22:18:38.359Z,9.91
2023-05-13T22:21:04.992Z,9.94
2023-05-13T22:23:32.002Z,9.96
2023-05-13T22:25:58.292Z,9.96
2023-05-13T22:28:24.712Z,10.00
2023-05-13T22:30:51.450Z,10.05
2023-05-13T22:33:18.171Z,10.08
2023-05-13T22:35:44.708Z,10.12
2023-05-13T22:38:11.018Z,10.16
2023-05-13T22:40:37.976Z,10.29
2023-05-13T22:43:04.306Z,10.24
2023-05-13T22:45:30.650Z,10.26
2023-05-13T22:47:56.996Z,10.30
2023-05-13T22:50:24.284Z,10.32
2023-05-13T22:58:07.385Z,10.22
2023-05-13T23:00:33.765Z,10.25
2023-05-13T23:03:00.059Z,10.24
2023-05-13T23:05:26.451Z,10.31
2023-05-13T23:07:52.785Z,10.36
2023-05-13T23:10:19.106Z,10.35
2023-05-13T23:12:45.350Z,10.43
2023-05-13T23:15:14.055Z,10.43
2023-05-13T23:17:40.372Z,10.42
2023-05-13T23:20:07.886Z,10.40
2023-05-13T23:22:34.200Z,10.43
2023-05-13T23:25:00.473Z,10.47
2023-05-13T23:27:26.816Z,10.47
2023-05-13T23:29:53.081Z,10.44
2023-05-13T23:32:20.209Z,10.49
2023-05-13T23:34:46.489Z,10.51
2023-05-13T23:37:14.795Z,10.49
2023-05-13T23:39:41.168Z,10.44
2023-05-13T23:42:07.523Z,10.50
2023-05-13T23:44:33.834Z,10.45
2023-05-13T23:47:00.157Z,10.45
2023-05-13T23:49:27.115Z,10.39
2023-05-13T23:51:53.537Z,10.39
2023-05-13T23:54:19.897Z,10.34
2023-05-13T23:56:46.229Z,10.39
2023-05-13T23:59:12.602Z,10.34
